Time;durP1;ratioP1;P1;durP2;ratioP2;P2;SDS_P1;SDS_P2;PMS_P1;PMS_P2;Temp;Humidity;BMP_temperature;BMP_pressure;BME280_temperature;BME280_humidity;BME280_pressure;Samples;Min_cycle;Max_cycle;Signal;HPM_P1;HPM_P2
2021/08/11 00:02:41;;;;;;;4.50;2.25;;;;;;;17.63;67.57;100797.78;5058018;28;20047;-43
2021/08/11 00:05:28;;;;;;;3.03;2.70;;;;;;;17.60;67.57;100796.56;5072821;28;20056;-45
2021/08/11 00:08:15;;;;;;;3.15;2.20;;;;;;;17.58;67.53;100790.53;5075358;28;20565;-43
2021/08/11 00:11:02;;;;;;;2.05;1.83;;;;;;;17.60;66.96;100796.56;5073708;28;20516;-44
2021/08/11 00:13:49;;;;;;;3.63;1.73;;;;;;;17.61;66.89;100800.13;5072875;28;20390;-45
2021/08/11 00:16:36;;;;;;;3.83;2.15;;;;;;;17.60;67.19;100801.34;5071646;28;20408;-44
2021/08/11 00:19:23;;;;;;;5.53;2.13;;;;;;;17.58;67.26;100798.94;5072494;28;20048;-43
2021/08/11 00:22:11;;;;;;;2.63;1.92;;;;;;;17.61;67.11;100802.94;5070680;28;20044;-42
2021/08/11 00:24:58;;;;;;;3.67;1.45;;;;;;;17.62;67.29;100788.56;5073630;28;20765;-48
2021/08/11 00:27:45;;;;;;;1.67;1.50;;;;;;;17.61;67.42;100784.16;5072554;28;20052;-45
2021/08/11 00:30:32;;;;;;;1.67;1.35;;;;;;;17.65;67.51;100778.56;5075136;28;20095;-45
2021/08/11 00:33:20;;;;;;;2.20;1.70;;;;;;;17.64;67.67;100769.38;5076959;28;20135;-43
2021/08/11 00:36:07;;;;;;;1.60;1.10;;;;;;;17.67;67.72;100778.16;5074232;28;20508;-43
2021/08/11 00:38:54;;;;;;;2.97;0.98;;;;;;;17.68;67.67;100775.00;5076113;28;20707;-42
2021/08/11 00:41:44;;;;;;;2.22;0.93;;;;;;;17.69;67.98;100770.19;5075814;28;20409;-43
2021/08/11 00:44:31;;;;;;;1.05;0.70;;;;;;;17.66;68.18;100771.75;5074380;28;20142;-42
2021/08/11 00:47:21;;;;;;;2.60;0.75;;;;;;;17.67;68.78;100766.97;5073730;28;20405;-43
2021/08/11 00:50:09;;;;;;;0.98;0.70;;;;;;;17.68;69.05;100765.78;5037860;28;20402;-41
2021/08/11 00:52:56;;;;;;;1.08;0.70;;;;;;;17.62;69.24;100766.16;5073702;28;20040;-42
2021/08/11 00:55:44;;;;;;;0.75;0.68;;;;;;;17.63;69.25;100764.94;5072206;28;20052;-43
2021/08/11 00:58:32;;;;;;;0.60;0.60;;;;;;;17.62;69.64;100759.75;5074155;28;20132;-48
2021/08/11 01:01:21;;;;;;;2.10;1.42;;;;;;;17.63;69.45;100759.34;5074973;28;20044;-43
2021/08/11 01:04:11;;;;;;;1.30;0.82;;;;;;;17.61;69.67;100758.94;5074174;28;20072;-43
2021/08/11 01:07:01;;;;;;;2.72;0.95;;;;;;;17.60;69.74;100759.34;5072043;28;20512;-43
2021/08/11 01:09:50;;;;;;;1.75;1.17;;;;;;;17.57;69.85;100762.94;5076485;28;20489;-42
2021/08/11 01:12:38;;;;;;;1.35;1.23;;;;;;;17.51;70.02;100768.06;5074635;28;20405;-43
2021/08/11 01:15:25;;;;;;;2.30;1.15;;;;;;;17.53;70.14;100768.50;5073584;28;20051;-43
2021/08/11 01:18:17;;;;;;;0.90;0.82;;;;;;;17.51;70.42;100751.28;5069926;28;20093;-54
2021/08/11 01:21:20;;;;;;;0.80;0.65;;;;;;;17.54;70.43;100755.31;5073688;28;20052;-45
2021/08/11 01:24:07;;;;;;;1.85;0.90;;;;;;;17.58;70.29;100753.31;5073496;28;20149;-45
2021/08/11 01:27:39;;;;;;;5.88;1.27;;;;;;;17.56;71.28;100750.13;5072480;28;20895;-46
2021/08/11 01:30:33;;;;;;;2.85;1.65;;;;;;;17.55;71.74;100742.94;5071853;28;20056;-43
2021/08/11 01:33:48;;;;;;;3.00;1.40;;;;;;;17.50;72.80;100746.09;5074270;28;20051;-47
2021/08/11 01:36:45;;;;;;;2.72;1.40;;;;;;;17.50;72.85;100746.84;5072393;28;20059;-43
2021/08/11 01:39:43;;;;;;;4.25;1.60;;;;;;;17.47;73.88;100747.63;5073458;28;20453;-42
2021/08/11 01:42:40;;;;;;;4.45;1.92;;;;;;;17.44;73.39;100751.25;5073272;28;20055;-48
2021/08/11 01:45:37;;;;;;;4.40;2.13;;;;;;;17.45;73.37;100743.63;5072223;28;20055;-48
2021/08/11 01:48:27;;;;;;;4.18;2.63;;;;;;;17.46;73.53;100737.66;5072038;28;20044;-46
2021/08/11 01:51:14;;;;;;;6.38;2.15;;;;;;;17.48;73.61;100743.66;5074262;28;20078;-44
2021/08/11 01:54:03;;;;;;;3.28;2.08;;;;;;;17.48;73.82;100737.25;5074691;28;20047;-43
2021/08/11 01:56:50;;;;;;;5.80;1.77;;;;;;;17.48;73.89;100740.84;5073271;28;20062;-49
2021/08/11 01:59:39;;;;;;;3.58;2.03;;;;;;;17.47;74.09;100730.84;5072292;28;20040;-43
2021/08/11 02:02:26;;;;;;;3.78;2.00;;;;;;;17.48;74.23;100729.66;5058445;28;20048;-51
2021/08/11 02:05:15;;;;;;;9.52;3.05;;;;;;;17.49;74.36;100722.88;5073517;28;20040;-45
2021/08/11 02:08:04;;;;;;;3.22;2.22;;;;;;;17.49;74.50;100711.69;5071840;28;20401;-42
2021/08/11 02:10:55;;;;;;;5.18;2.92;;;;;;;17.50;74.70;100707.66;5073793;28;20057;-47
2021/08/11 02:13:42;;;;;;;4.00;1.90;;;;;;;17.50;74.75;100718.88;5074729;28;20052;-43
2021/08/11 02:16:29;;;;;;;5.28;2.83;;;;;;;17.51;74.69;100709.28;5072269;28;20139;-43
2021/08/11 02:19:16;;;;;;;2.88;1.88;;;;;;;17.49;75.05;100703.28;5074929;28;20082;-43
2021/08/11 02:22:03;;;;;;;2.83;1.70;;;;;;;17.49;74.99;100703.28;5074161;28;20040;-45
2021/08/11 02:24:50;;;;;;;5.93;2.28;;;;;;;17.51;75.04;100700.88;5072174;28;20786;-47
2021/08/11 02:28:06;;;;;;;7.22;2.47;;;;;;;17.50;75.35;100690.88;5073278;28;20060;-46
2021/08/11 02:31:03;;;;;;;8.70;3.22;;;;;;;17.53;75.01;100681.72;5073622;28;20075;-42
2021/08/11 02:34:03;;;;;;;3.30;2.10;;;;;;;17.52;75.07;100682.91;5076514;28;20075;-46
2021/08/11 02:36:57;;;;;;;5.45;2.08;;;;;;;17.52;75.25;100679.31;5075579;28;20051;-41
2021/08/11 02:40:22;;;;;;;2.85;1.67;;;;;;;17.48;75.45;100676.47;5076068;28;20051;-50
2021/08/11 02:43:13;;;;;;;3.15;1.70;;;;;;;17.51;74.97;100675.69;5072591;28;20054;-43
2021/08/11 02:46:08;;;;;;;4.22;2.00;;;;;;;17.49;75.17;100683.69;5075612;28;20062;-43
2021/08/11 02:49:01;;;;;;;5.63;2.22;;;;;;;17.46;75.17;100672.47;5076024;28;20954;-44
2021/08/11 02:51:49;;;;;;;3.35;1.70;;;;;;;17.43;75.04;100662.88;5077168;28;20578;-42
2021/08/11 02:54:39;;;;;;;3.28;1.42;;;;;;;17.37;75.44;100663.63;5074255;28;20052;-45
2021/08/11 02:57:27;;;;;;;3.13;1.55;;;;;;;17.33;75.38;100668.41;5074392;28;20051;-49
2021/08/11 03:00:15;;;;;;;4.35;2.00;;;;;;;17.30;75.55;100658.81;5077763;28;20048;-43
2021/08/11 03:03:04;;;;;;;3.10;1.77;;;;;;;17.30;75.61;100658.81;5075645;28;20079;-42
2021/08/11 03:05:52;;;;;;;5.47;1.90;;;;;;;17.29;75.71;100651.59;5075973;28;20051;-47
2021/08/11 03:08:39;;;;;;;3.08;1.80;;;;;;;17.28;75.80;100655.59;5073388;28;20055;-46
2021/08/11 03:11:28;;;;;;;5.15;2.60;;;;;;;17.25;76.05;100662.00;5061978;28;20186;-43
2021/08/11 03:14:16;;;;;;;7.53;3.40;;;;;;;17.24;76.24;100667.97;5060821;28;20051;-42
2021/08/11 03:17:08;;;;;;;5.82;2.28;;;;;;;17.20;76.77;100651.16;5073657;28;20151;-41
2021/08/11 03:19:55;;;;;;;6.97;2.30;;;;;;;17.20;76.66;100658.75;5072250;28;20063;-44
2021/08/11 03:22:42;;;;;;;8.65;5.00;;;;;;;17.15;76.92;100654.34;5074749;28;20272;-43
2021/08/11 03:25:29;;;;;;;7.07;2.80;;;;;;;17.15;77.13;100637.56;5072901;28;20403;-44
2021/08/11 03:28:16;;;;;;;5.25;2.70;;;;;;;17.14;77.04;100635.94;5074367;28;20040;-43
2021/08/11 03:31:04;;;;;;;8.60;3.10;;;;;;;17.13;77.48;100625.16;5074989;28;20129;-45
2021/08/11 03:33:51;;;;;;;6.38;2.30;;;;;;;17.11;77.55;100625.53;5061038;28;20067;-45
2021/08/11 03:36:38;;;;;;;5.10;2.88;;;;;;;17.10;77.66;100632.34;5074048;28;20398;-43
2021/08/11 03:39:25;;;;;;;5.20;2.50;;;;;;;17.11;77.38;100633.94;5076181;28;20043;-42
2021/08/11 03:42:12;;;;;;;2.60;1.85;;;;;;;17.16;77.01;100633.53;5076409;28;20051;-48
2021/08/11 03:44:59;;;;;;;4.93;2.25;;;;;;;17.21;76.62;100627.56;5075821;28;20043;-42
2021/08/11 03:47:47;;;;;;;3.08;2.42;;;;;;;17.25;76.50;100628.41;5074483;28;20417;-46
2021/08/11 03:50:34;;;;;;;4.07;2.47;;;;;;;17.25;76.52;100616.41;5076155;28;20791;-42
2021/08/11 03:53:21;;;;;;;4.80;3.38;;;;;;;17.25;76.80;100603.22;5075028;28;20052;-43
2021/08/11 03:56:08;;;;;;;5.35;3.25;;;;;;;17.24;76.97;100593.22;5074482;28;21076;-46
2021/08/11 03:58:55;;;;;;;4.45;2.05;;;;;;;17.20;77.01;100598.00;5072506;28;20527;-49
2021/08/11 04:01:42;;;;;;;4.88;2.85;;;;;;;17.20;77.04;100600.81;5075042;28;20048;-44
2021/08/11 04:04:30;;;;;;;6.18;2.83;;;;;;;17.19;77.15;100598.38;5074009;28;20048;-44
2021/08/11 04:07:17;;;;;;;5.15;2.92;;;;;;;17.18;77.18;100594.81;5074283;28;20400;-42
2021/08/11 04:10:06;;;;;;;4.90;2.53;;;;;;;17.17;77.36;100603.59;5074526;28;20335;-44
2021/08/11 04:12:53;;;;;;;8.48;3.08;;;;;;;17.17;77.45;100609.19;5074963;28;20055;-45
2021/08/11 04:15:42;;;;;;;8.88;3.78;;;;;;;17.16;77.52;100608.38;5071716;28;20105;-44
2021/08/11 04:18:29;;;;;;;11.68;4.05;;;;;;;17.14;77.65;100604.38;5075202;28;20093;-41
2021/08/11 04:21:17;;;;;;;12.38;3.17;;;;;;;17.09;77.95;100599.97;5074241;28;20056;-42
2021/08/11 04:24:04;;;;;;;13.70;4.30;;;;;;;17.03;78.45;100587.53;5071964;28;20117;-44
2021/08/11 04:26:51;;;;;;;8.50;3.63;;;;;;;17.02;78.49;100597.13;5074915;28;20047;-47
2021/08/11 04:29:38;;;;;;;15.10;4.07;;;;;;;16.97;78.84;100589.13;5073443;28;20520;-47
2021/08/11 04:32:25;;;;;;;10.60;3.40;;;;;;;16.93;79.12;100577.09;5073166;28;20048;-43
2021/08/11 04:35:12;;;;;;;12.02;4.45;;;;;;;16.90;79.26;100569.50;5072229;28;20052;-42
2021/08/11 04:37:59;;;;;;;10.40;3.40;;;;;;;16.88;79.37;100572.69;5073441;28;20785;-44
2021/08/11 04:40:47;;;;;;;10.02;3.90;;;;;;;16.86;79.61;100569.50;5071313;28;20448;-42
2021/08/11 04:43:35;;;;;;;12.95;3.75;;;;;;;16.84;79.73;100563.47;5074182;28;20051;-48
2021/08/11 04:46:22;;;;;;;8.95;3.08;;;;;;;16.85;79.69;100564.28;5072649;28;20074;-47
2021/08/11 04:49:09;;;;;;;10.30;3.90;;;;;;;16.86;79.70;100566.69;5072799;28;20059;-42
2021/08/11 04:51:56;;;;;;;8.27;3.92;;;;;;;16.85;79.78;100564.28;5071731;28;21635;-50
2021/08/11 04:54:43;;;;;;;8.13;3.60;;;;;;;16.84;79.89;100571.06;5072327;28;20050;-44
2021/08/11 04:57:30;;;;;;;13.52;4.80;;;;;;;16.83;79.94;100572.25;5073013;28;20052;-44
2021/08/11 05:00:17;;;;;;;7.60;3.08;;;;;;;16.87;79.72;100567.47;5071921;28;20055;-43
2021/08/11 05:03:05;;;;;;;11.60;4.85;;;;;;;16.85;80.00;100569.88;5073767;28;20040;-46
2021/08/11 05:05:52;;;;;;;10.48;4.18;;;;;;;16.82;80.20;100577.03;5072844;28;20048;-45
2021/08/11 05:08:39;;;;;;;10.55;5.18;;;;;;;16.83;80.35;100572.25;5074715;28;20420;-43
2021/08/11 05:11:26;;;;;;;8.75;4.55;;;;;;;16.84;80.34;100573.84;5070723;28;20051;-47
2021/08/11 05:14:13;;;;;;;7.80;3.95;;;;;;;16.82;80.43;100576.25;5073527;28;20039;-43
2021/08/11 05:17:01;;;;;;;9.32;3.45;;;;;;;16.84;80.36;100585.84;5073546;28;20067;-46
2021/08/11 05:19:49;;;;;;;12.73;3.58;;;;;;;16.87;80.39;100585.06;5072908;28;20816;-46
2021/08/11 05:22:36;;;;;;;8.50;3.33;;;;;;;16.88;80.61;100591.47;5073720;28;20048;-45
2021/08/11 05:25:23;;;;;;;12.23;3.83;;;;;;;16.91;80.45;100596.28;5069891;28;20044;-45
2021/08/11 05:28:10;;;;;;;13.50;4.97;;;;;;;16.93;80.55;100583.50;5072524;28;20052;-44
2021/08/11 05:30:57;;;;;;;6.45;3.03;;;;;;;16.95;80.70;100594.28;5074249;28;20073;-43
2021/08/11 05:33:45;;;;;;;9.82;4.00;;;;;;;16.98;80.55;100591.50;5076139;28;21006;-42
2021/08/11 05:36:32;;;;;;;12.85;3.58;;;;;;;17.00;80.70;100577.94;5074715;28;20048;-43
2021/08/11 05:39:19;;;;;;;10.13;3.72;;;;;;;17.04;80.47;100577.97;5074809;28;20052;-44
2021/08/11 05:42:06;;;;;;;8.27;3.58;;;;;;;17.09;80.43;100576.78;5077158;28;20066;-43
2021/08/11 05:44:53;;;;;;;7.20;2.95;;;;;;;17.12;80.29;100573.19;5072429;28;20058;-47
2021/08/11 05:47:41;;;;;;;6.68;2.33;;;;;;;17.12;80.25;100567.59;5075217;28;20048;-44
2021/08/11 05:50:28;;;;;;;6.03;2.10;;;;;;;17.13;79.90;100564.38;5072942;28;20159;-49
2021/08/11 05:53:16;;;;;;;2.88;1.80;;;;;;;17.17;80.01;100556.03;5073581;28;20109;-45
2021/08/11 05:56:03;;;;;;;3.15;1.88;;;;;;;17.21;79.55;100562.44;5074270;28;20482;-43
2021/08/11 05:58:50;;;;;;;3.88;1.40;;;;;;;17.22;79.57;100573.22;5073107;28;20106;-44
2021/08/11 06:01:37;;;;;;;3.92;1.60;;;;;;;17.24;79.54;100570.84;5072885;28;20052;-44
2021/08/11 06:04:27;;;;;;;1.52;1.27;;;;;;;17.27;79.43;100572.03;5078616;28;20050;-52
2021/08/11 06:07:15;;;;;;;2.67;1.30;;;;;;;17.30;79.48;100571.25;5078184;28;20523;-43
2021/08/11 06:10:04;;;;;;;1.83;1.08;;;;;;;17.28;79.42;100573.66;5076626;28;20500;-45
2021/08/11 06:12:53;;;;;;;2.15;0.82;;;;;;;17.26;79.52;100562.84;5079254;28;20500;-43
2021/08/11 06:15:40;;;;;;;4.25;1.35;;;;;;;17.28;79.35;100560.47;5075804;28;20501;-46
2021/08/11 06:18:27;;;;;;;6.85;1.55;;;;;;;17.28;79.24;100570.84;5079179;28;20048;-44
2021/08/11 06:21:14;;;;;;;4.03;1.10;;;;;;;17.26;79.34;100568.44;5078955;28;20052;-42
2021/08/11 06:24:02;;;;;;;2.28;0.90;;;;;;;17.23;79.36;100558.06;5077679;28;21429;-43
2021/08/11 06:26:49;;;;;;;1.88;1.08;;;;;;;17.23;79.39;100563.66;5078527;28;20044;-43
2021/08/11 06:29:36;;;;;;;2.30;1.00;;;;;;;17.22;79.37;100541.66;5077842;28;20167;-44
2021/08/11 06:32:23;;;;;;;3.60;1.17;;;;;;;17.22;79.29;100556.44;5078347;28;20048;-42
2021/08/11 06:35:11;;;;;;;1.42;0.90;;;;;;;17.25;79.36;100540.88;5078149;28;20052;-44
2021/08/11 06:37:59;;;;;;;1.90;1.08;;;;;;;17.24;79.30;100548.44;5078807;28;20663;-43
2021/08/11 06:40:47;;;;;;;2.60;1.40;;;;;;;17.25;79.35;100547.25;5079072;28;20429;-46
2021/08/11 06:43:34;;;;;;;2.08;1.15;;;;;;;17.27;79.27;100533.69;5065296;28;20067;-48
2021/08/11 06:46:21;;;;;;;3.45;1.17;;;;;;;17.32;79.40;100538.06;5078453;28;20193;-46
2021/08/11 06:49:08;;;;;;;3.45;1.58;;;;;;;17.35;79.49;100557.69;5078193;28;20055;-46
2021/08/11 06:51:55;;;;;;;12.38;3.03;;;;;;;17.38;79.32;100540.09;5077862;28;20044;-42
2021/08/11 06:54:42;;;;;;;4.03;1.38;;;;;;;17.42;79.10;100549.28;5077226;28;20036;-44
2021/08/11 06:57:29;;;;;;;2.70;1.13;;;;;;;17.45;79.14;100537.31;5063492;28;20729;-44
2021/08/11 07:00:17;;;;;;;6.55;2.28;;;;;;;17.45;79.31;100540.13;5077970;28;20051;-42
2021/08/11 07:03:04;;;;;;;4.72;1.55;;;;;;;17.45;79.35;100556.09;5078276;28;20052;-41
2021/08/11 07:05:51;;;;;;;5.00;1.67;;;;;;;17.43;79.41;100545.31;5078696;28;20740;-44
2021/08/11 07:08:38;;;;;;;4.78;1.92;;;;;;;17.41;79.59;100552.50;5075107;28;20516;-44
2021/08/11 07:11:25;;;;;;;4.18;1.70;;;;;;;17.41;79.81;100547.72;5078522;28;21363;-44
2021/08/11 07:14:12;;;;;;;8.00;2.13;;;;;;;17.42;79.79;100554.91;5076144;28;20052;-48
2021/08/11 07:16:59;;;;;;;2.88;1.50;;;;;;;17.39;79.86;100558.50;5078341;28;20672;-42
2021/08/11 07:19:47;;;;;;;3.88;1.73;;;;;;;17.40;79.71;100557.28;5063047;28;20396;-45
2021/08/11 07:22:34;;;;;;;3.55;2.10;;;;;;;17.40;79.88;100548.91;5078652;28;20052;-43
2021/08/11 07:25:21;;;;;;;3.97;1.63;;;;;;;17.43;79.75;100550.91;5063725;28;20063;-42
2021/08/11 07:28:09;;;;;;;3.40;1.40;;;;;;;17.43;79.70;100548.13;5078067;28;20051;-44
2021/08/11 07:30:56;;;;;;;5.20;1.55;;;;;;;17.43;79.62;100545.31;5074491;28;20094;-41
2021/08/11 07:33:43;;;;;;;1.90;1.23;;;;;;;17.43;79.48;100542.50;5072747;28;20067;-48
2021/08/11 07:36:30;;;;;;;5.45;1.60;;;;;;;17.48;79.61;100547.72;5075541;28;20052;-42
2021/08/11 07:39:17;;;;;;;4.05;1.23;;;;;;;17.51;79.49;100535.72;5070792;28;20135;-42
2021/08/11 07:42:08;;;;;;;2.10;1.30;;;;;;;17.50;79.55;100538.94;5062744;28;20140;-45
2021/08/11 07:44:55;;;;;;;5.50;1.10;;;;;;;17.53;79.43;100532.56;5073222;28;20044;-42
2021/08/11 07:47:46;;;;;;;1.85;1.30;;;;;;;17.57;79.01;100534.19;5071618;28;20063;-45
2021/08/11 07:50:37;;;;;;;2.90;0.93;;;;;;;17.63;78.92;100535.38;5073433;28;20100;-46
2021/08/11 07:53:24;;;;;;;0.88;0.73;;;;;;;17.70;78.71;100545.78;5075866;28;20047;-45
2021/08/11 07:56:11;;;;;;;2.17;0.60;;;;;;;17.79;78.32;100528.59;5073937;28;20044;-43
2021/08/11 07:58:58;;;;;;;1.33;0.63;;;;;;;17.86;78.09;100529.41;5075861;28;21060;-46
2021/08/11 08:01:45;;;;;;;2.88;0.70;;;;;;;17.96;78.00;100525.00;5075416;28;20047;-43
2021/08/11 08:04:33;;;;;;;1.50;0.70;;;;;;;18.08;77.67;100535.81;5073699;28;20071;-43
2021/08/11 08:07:20;;;;;;;1.63;0.73;;;;;;;18.14;77.74;100539.78;5072893;28;20154;-43
2021/08/11 08:10:08;;;;;;;1.63;0.80;;;;;;;18.21;77.49;100528.59;5061658;28;20630;-46
2021/08/11 08:12:57;;;;;;;3.13;1.00;;;;;;;18.30;77.34;100520.56;5073055;28;20272;-45
2021/08/11 08:15:44;;;;;;;1.25;0.77;;;;;;;18.40;77.25;100525.34;5074873;28;20050;-43
2021/08/11 08:18:31;;;;;;;1.20;0.93;;;;;;;18.50;76.87;100512.56;5073639;28;20416;-48
2021/08/11 08:21:18;;;;;;;1.15;0.82;;;;;;;18.58;76.51;100512.13;5076014;28;20084;-46
2021/08/11 08:24:05;;;;;;;1.13;0.77;;;;;;;18.63;76.42;100499.69;5071024;28;20056;-46
2021/08/11 08:26:53;;;;;;;3.38;0.70;;;;;;;18.67;76.12;100503.28;5071117;28;20087;-44
2021/08/11 08:29:40;;;;;;;1.00;0.60;;;;;;;18.69;75.65;100498.09;5060056;28;20104;-45
2021/08/11 08:32:29;;;;;;;1.23;0.80;;;;;;;18.69;75.91;100487.66;5071932;28;20413;-45
2021/08/11 08:35:17;;;;;;;1.20;1.02;;;;;;;18.68;75.56;100488.06;5074597;28;20202;-43
2021/08/11 08:38:04;;;;;;;1.13;1.00;;;;;;;18.68;75.53;100493.66;5073807;28;20044;-44
2021/08/11 08:40:52;;;;;;;1.92;1.10;;;;;;;18.68;75.34;100488.88;5072855;28;20044;-44
2021/08/11 08:43:40;;;;;;;1.10;0.88;;;;;;;18.65;74.81;100489.69;5076082;28;20048;-47
2021/08/11 08:46:28;;;;;;;1.67;1.23;;;;;;;18.62;74.75;100487.69;5071017;28;20119;-42
2021/08/11 08:49:16;;;;;;;2.95;1.33;;;;;;;18.61;74.70;100486.06;5070836;28;20136;-41
2021/08/11 08:52:04;;;;;;;2.75;1.48;;;;;;;18.64;74.75;100481.66;5075287;28;20089;-41
2021/08/11 08:54:52;;;;;;;3.63;2.05;;;;;;;18.67;74.38;100492.06;5074985;28;20563;-41
2021/08/11 08:57:39;;;;;;;4.07;1.75;;;;;;;18.72;74.62;100489.63;5072018;28;20056;-43
2021/08/11 09:00:26;;;;;;;2.60;1.38;;;;;;;18.80;74.23;100488.41;5073332;28;20048;-47
2021/08/11 09:03:15;;;;;;;1.67;1.30;;;;;;;18.85;74.20;100479.56;5072991;28;20048;-43
2021/08/11 09:06:02;;;;;;;3.13;1.65;;;;;;;18.89;73.86;100478.75;5072610;28;20071;-42
2021/08/11 09:09:03;;;;;;;1.98;1.55;;;;;;;18.88;73.83;100485.59;5072912;28;20497;-42
2021/08/11 09:12:07;;;;;;;3.60;1.60;;;;;;;18.87;73.72;100486.78;5070898;28;20055;-44
2021/08/11 09:14:55;;;;;;;2.28;2.08;;;;;;;18.90;73.91;100480.38;5072065;28;20487;-44
2021/08/11 09:17:42;;;;;;;3.25;1.75;;;;;;;18.90;74.08;100481.16;5071526;28;20386;-46
2021/08/11 09:20:29;;;;;;;2.53;1.83;;;;;;;18.92;73.77;100477.94;5069911;28;20052;-43
2021/08/11 09:23:36;;;;;;;4.30;1.88;;;;;;;18.93;73.48;100477.53;5068486;28;20056;-42
2021/08/11 09:26:29;;;;;;;5.03;2.17;;;;;;;19.00;74.02;100471.09;5070862;28;20413;-44
2021/08/11 09:29:18;;;;;;;1.98;1.77;;;;;;;19.03;73.83;100473.09;5072941;28;20051;-47
2021/08/11 09:32:07;;;;;;;4.32;1.83;;;;;;;19.09;73.43;100477.84;5072002;28;20047;-41
2021/08/11 09:34:56;;;;;;;2.17;1.80;;;;;;;19.13;73.21;100480.63;5072927;28;20052;-42
2021/08/11 09:37:44;;;;;;;2.70;2.00;;;;;;;19.15;72.84;100486.63;5072244;28;20068;-41
2021/08/11 09:40:33;;;;;;;3.35;2.83;;;;;;;19.18;73.27;100483.00;5076966;28;20473;-43
2021/08/11 09:43:33;;;;;;;2.60;1.77;;;;;;;19.20;72.67;100472.16;5077080;28;20048;-42
2021/08/11 09:46:30;;;;;;;4.50;2.03;;;;;;;19.23;72.52;100477.78;5075779;28;20662;-41
2021/08/11 09:49:24;;;;;;;3.05;1.65;;;;;;;19.23;73.02;100477.78;5074443;28;20128;-42
2021/08/11 09:52:11;;;;;;;3.50;1.92;;;;;;;19.24;73.19;100481.38;5075096;28;20394;-45
2021/08/11 09:55:00;;;;;;;5.00;2.15;;;;;;;19.26;73.18;100487.38;5076417;28;20112;-40
2021/08/11 09:57:48;;;;;;;2.42;1.83;;;;;;;19.25;73.10;100474.53;5061118;28;20731;-40
2021/08/11 10:00:39;;;;;;;2.95;1.98;;;;;;;19.23;72.98;100485.38;5076455;28;20132;-42
2021/08/11 10:03:26;;;;;;;3.65;1.95;;;;;;;19.24;72.69;100478.56;5074388;28;20910;-44
2021/08/11 10:06:32;;;;;;;2.28;1.70;;;;;;;19.27;72.45;100483.38;5074308;28;20056;-43
2021/08/11 10:09:25;;;;;;;2.97;2.08;;;;;;;19.29;72.54;100483.75;5076988;28;20146;-41
2021/08/11 10:12:29;;;;;;;1.95;1.63;;;;;;;19.30;72.54;100474.13;5075319;28;20132;-44
2021/08/11 10:15:16;;;;;;;3.50;1.95;;;;;;;19.35;72.29;100482.13;5076155;28;20048;-42
2021/08/11 10:18:04;;;;;;;1.75;1.40;;;;;;;19.34;72.58;100486.94;5077223;28;20040;-42
2021/08/11 10:21:02;;;;;;;2.78;1.63;;;;;;;19.35;72.66;100485.69;5076302;28;20489;-43
2021/08/11 10:23:50;;;;;;;3.15;1.52;;;;;;;19.33;72.97;100482.50;5075697;28;20055;-42
2021/08/11 10:26:38;;;;;;;2.80;1.30;;;;;;;19.25;73.51;100489.38;5074642;28;20525;-44
2021/08/11 10:29:25;;;;;;;3.55;1.50;;;;;;;19.19;73.58;100484.63;5077392;28;20062;-43
2021/08/11 10:32:14;;;;;;;2.58;0.95;;;;;;;19.13;74.32;100489.06;5075631;28;20378;-43
2021/08/11 10:35:01;;;;;;;2.42;1.58;;;;;;;19.09;74.45;100496.72;5074254;28;20063;-42
2021/08/11 10:37:49;;;;;;;1.05;0.95;;;;;;;19.09;74.67;100480.66;5076008;28;21800;-43
2021/08/11 10:40:40;;;;;;;1.23;1.02;;;;;;;19.07;74.91;100485.06;5074785;28;20070;-42
2021/08/11 10:43:34;;;;;;;2.28;1.23;;;;;;;19.11;75.29;100475.44;5075443;28;20052;-46
2021/08/11 10:46:23;;;;;;;1.25;1.15;;;;;;;19.21;75.07;100473.78;5075093;28;20197;-43
2021/08/11 10:49:17;;;;;;;3.65;1.52;;;;;;;19.34;74.78;100477.69;5072109;28;20043;-42
2021/08/11 10:52:04;;;;;;;2.10;1.60;;;;;;;19.47;74.64;100472.44;5076586;28;20051;-46
2021/08/11 10:54:53;;;;;;;1.70;1.38;;;;;;;19.52;74.18;100489.63;5072240;28;20056;-45
2021/08/11 10:57:43;;;;;;;4.40;1.70;;;;;;;19.49;73.82;100518.53;5076724;28;21226;-41
2021/08/11 11:00:30;;;;;;;0.40;0.40;;;;;;;19.30;73.68;100535.88;5073592;28;20055;-52
2021/08/11 11:03:50;;;;;;;0.38;0.20;;;;;;;18.99;75.51;100540.44;5074999;28;20055;-48
2021/08/11 11:06:52;;;;;;;2.53;0.35;;;;;;;18.78;75.96;100535.69;5076869;28;20492;-46
2021/08/11 11:09:41;;;;;;;0.65;0.30;;;;;;;18.83;76.17;100542.88;5075006;28;20109;-48
2021/08/11 11:12:28;;;;;;;0.47;0.20;;;;;;;18.94;76.36;100528.81;5074569;28;20044;-51
2021/08/11 11:15:15;;;;;;;0.38;0.20;;;;;;;19.05;76.48;100538.00;5073324;28;20140;-50
2021/08/11 11:18:10;;;;;;;0.52;0.20;;;;;;;19.02;76.39;100541.63;5077040;28;20056;-48
2021/08/11 11:20:57;;;;;;;0.10;0.10;;;;;;;19.03;76.54;100532.00;5059318;28;20054;-44
2021/08/11 11:23:44;;;;;;;0.10;0.10;;;;;;;19.01;76.41;100531.63;5073672;28;20051;-48
2021/08/11 11:26:33;;;;;;;0.20;0.17;;;;;;;19.08;76.77;100540.00;5073643;28;20158;-49
2021/08/11 11:29:40;;;;;;;0.10;0.10;;;;;;;19.30;76.77;100535.88;5075143;28;20056;-48
2021/08/11 11:32:28;;;;;;;0.40;0.20;;;;;;;19.42;76.92;100546.66;5073890;28;20052;-44
2021/08/11 11:35:16;;;;;;;0.30;0.30;;;;;;;19.58;77.24;100532.94;5075238;28;20071;-44
2021/08/11 11:38:11;;;;;;;0.38;0.10;;;;;;;19.73;76.99;100539.22;5076295;28;20733;-44
2021/08/11 11:40:58;;;;;;;0.10;0.10;;;;;;;19.66;76.57;100544.91;5072799;28;20047;-43
2021/08/11 11:43:45;;;;;;;0.10;0.10;;;;;;;19.54;76.63;100546.19;5071915;28;20055;-46
2021/08/11 11:46:47;;;;;;;0.32;0.10;;;;;;;19.41;76.39;100551.47;5070797;28;20489;-45
2021/08/11 11:49:36;;;;;;;0.40;0.20;;;;;;;19.39;76.28;100548.28;5074106;28;20052;-47
2021/08/11 11:52:24;;;;;;;0.90;0.40;;;;;;;19.38;75.99;100559.91;5073102;28;20089;-48
2021/08/11 11:55:11;;;;;;;1.15;0.20;;;;;;;19.35;76.33;100580.38;5075610;28;20693;-45
2021/08/11 11:58:03;;;;;;;0.20;0.20;;;;;;;19.25;76.15;100572.78;5072650;28;20048;-50
2021/08/11 12:01:01;;;;;;;1.85;0.10;;;;;;;19.01;75.65;100576.50;5072919;28;20079;-44
2021/08/11 12:03:52;;;;;;;2.15;0.32;;;;;;;18.78;76.48;100579.78;5072763;28;20052;-49
2021/08/11 12:06:41;;;;;;;0.22;0.03;;;;;;;18.75;76.62;100584.19;5075150;28;20477;-49
2021/08/11 12:09:46;;;;;;;0.57;0.10;;;;;;;18.68;76.73;100575.81;5075654;28;20070;-41
2021/08/11 12:12:33;;;;;;;2.85;0.45;;;;;;;18.66;76.67;100572.59;5074893;28;20044;-45
2021/08/11 12:15:21;;;;;;;2.05;0.20;;;;;;;18.64;76.70;100569.38;5070813;28;20052;-50
2021/08/11 12:18:23;;;;;;;1.35;0.20;;;;;;;18.68;76.95;100564.59;5073684;28;20549;-42
2021/08/11 12:21:10;;;;;;;0.68;0.20;;;;;;;18.82;76.58;100569.38;5071631;28;20173;-45
2021/08/11 12:23:57;;;;;;;1.52;0.20;;;;;;;18.99;76.05;100564.88;5072180;28;20059;-46
2021/08/11 12:26:44;;;;;;;0.90;0.82;;;;;;;19.04;76.02;100578.47;5072641;28;20052;-43
2021/08/11 12:29:31;;;;;;;0.82;0.35;;;;;;;19.12;76.25;100577.25;5074655;28;20051;-42
2021/08/11 12:32:22;;;;;;;0.82;0.30;;;;;;;19.30;75.98;100578.00;5074474;28;20508;-46
2021/08/11 12:35:12;;;;;;;1.27;0.20;;;;;;;19.34;75.85;100568.34;5072891;28;20056;-43
2021/08/11 12:37:59;;;;;;;0.20;0.20;;;;;;;19.36;76.05;100567.91;5068381;28;20477;-46
2021/08/11 12:40:46;;;;;;;3.65;0.30;;;;;;;19.23;75.88;100586.44;5072256;28;20056;-49
2021/08/11 12:43:37;;;;;;;0.80;0.15;;;;;;;19.09;75.80;100594.94;5061432;28;20058;-43
2021/08/11 12:46:57;;;;;;;0.30;0.30;;;;;;;19.10;77.37;100586.09;5076614;28;20579;-45
2021/08/11 12:49:49;;;;;;;1.65;0.45;;;;;;;19.30;76.27;100604.03;5033547;28;20102;-45
2021/08/11 12:52:36;;;;;;;6.07;1.40;;;;;;;19.18;75.82;100598.09;5075034;28;20201;-48
2021/08/11 12:55:32;;;;;;;2.78;1.05;;;;;;;18.96;73.86;100607.75;5079258;28;20047;-47
2021/08/11 12:58:19;;;;;;;1.23;0.77;;;;;;;19.02;73.63;100604.16;5074610;28;20059;-44
2021/08/11 13:01:08;;;;;;;4.43;0.75;;;;;;;19.27;73.57;100607.66;5075437;28;20048;-46
2021/08/11 13:03:56;;;;;;;3.17;0.70;;;;;;;19.54;73.32;100610.78;5074351;28;20537;-43
2021/08/11 13:06:45;;;;;;;3.83;0.80;;;;;;;19.65;72.06;100605.91;5073094;28;22334;-46
2021/08/11 13:09:32;;;;;;;4.15;1.40;;;;;;;19.75;71.64;100602.22;5075307;28;20091;-44